Time;durP1;ratioP1;P1;durP2;ratioP2;P2;SDS_P1;SDS_P2;PMS_P1;PMS_P2;Temp;Humidity;BMP_temperature;BMP_pressure;BME280_temperature;BME280_humidity;BME280_pressure;Samples;Min_cycle;Max_cycle;Signal;HPM_P1;HPM_P2
2023/12/07 00:00:19;;;;;;;13.57;10.88;;;;;;;;;;5073334;28;20271;-55
2023/12/07 00:02:46;;;;;;;14.35;11.02;;;;;;;;;;5073317;28;20192;-54
2023/12/07 00:05:13;;;;;;;13.60;11.25;;;;;;;;;;5073033;28;20221;-56
2023/12/07 00:07:40;;;;;;;12.38;10.10;;;;;;;;;;5073069;28;20195;-56
2023/12/07 00:10:08;;;;;;;16.87;10.77;;;;;;;;;;5073059;28;20640;-56
2023/12/07 00:12:36;;;;;;;10.63;9.38;;;;;;;;;;5072852;28;20451;-55
2023/12/07 00:15:03;;;;;;;16.38;13.25;;;;;;;;;;5073271;28;20193;-56
2023/12/07 00:17:30;;;;;;;12.57;10.95;;;;;;;;;;5073062;28;20185;-56
2023/12/07 00:19:57;;;;;;;13.02;10.90;;;;;;;;;;5072444;28;20200;-56
2023/12/07 00:22:26;;;;;;;13.32;10.70;;;;;;;;;;5072950;28;20276;-56
2023/12/07 00:24:53;;;;;;;13.20;11.17;;;;;;;;;;5072693;28;20748;-56
2023/12/07 00:27:20;;;;;;;12.10;9.93;;;;;;;;;;5072801;28;20994;-56
2023/12/07 00:29:48;;;;;;;11.20;9.93;;;;;;;;;;5072986;28;20189;-55
2023/12/07 00:32:15;;;;;;;11.23;10.02;;;;;;;;;;5072874;28;20559;-56
2023/12/07 00:34:42;;;;;;;14.33;10.60;;;;;;;;;;5072882;28;20295;-54
2023/12/07 00:37:09;;;;;;;12.75;10.82;;;;;;;;;;5072826;28;20537;-55
2023/12/07 00:39:36;;;;;;;15.38;11.63;;;;;;;;;;5073204;28;20192;-54
2023/12/07 00:42:04;;;;;;;11.10;10.00;;;;;;;;;;5072858;28;20189;-53
2023/12/07 00:44:30;;;;;;;13.27;10.80;;;;;;;;;;5072760;28;20478;-56
2023/12/07 00:46:59;;;;;;;10.73;9.63;;;;;;;;;;5072745;28;20299;-56
2023/12/07 00:49:26;;;;;;;11.85;10.35;;;;;;;;;;5072705;28;20284;-56
2023/12/07 00:51:53;;;;;;;12.15;10.32;;;;;;;;;;5072641;28;20189;-56
2023/12/07 00:54:20;;;;;;;14.13;11.55;;;;;;;;;;5072333;28;20198;-57
2023/12/07 00:56:47;;;;;;;12.13;9.95;;;;;;;;;;5072806;28;20276;-56
2023/12/07 00:59:14;;;;;;;12.73;10.57;;;;;;;;;;5072656;28;20205;-56
2023/12/07 01:01:41;;;;;;;14.55;11.35;;;;;;;;;;5072628;28;20280;-54
2023/12/07 01:04:09;;;;;;;13.00;10.20;;;;;;;;;;5072578;28;20277;-56
2023/12/07 01:06:37;;;;;;;12.88;10.85;;;;;;;;;;5072497;28;20193;-56
2023/12/07 01:09:04;;;;;;;11.20;9.43;;;;;;;;;;5072554;28;20185;-56
2023/12/07 01:11:31;;;;;;;14.95;11.15;;;;;;;;;;5072594;28;20448;-55
2023/12/07 01:13:58;;;;;;;12.15;10.90;;;;;;;;;;5072485;28;20279;-55
2023/12/07 01:16:25;;;;;;;13.27;10.65;;;;;;;;;;5072342;28;20280;-56
2023/12/07 01:18:52;;;;;;;14.70;11.40;;;;;;;;;;5072348;28;20189;-56
2023/12/07 01:21:20;;;;;;;13.43;10.57;;;;;;;;;;5072530;28;20190;-54
2023/12/07 01:23:47;;;;;;;12.10;10.80;;;;;;;;;;5072487;28;20276;-56
2023/12/07 01:26:14;;;;;;;12.32;11.00;;;;;;;;;;5072338;28;20647;-55
2023/12/07 01:28:41;;;;;;;15.35;11.52;;;;;;;;;;5072375;28;20285;-56
2023/12/07 01:31:08;;;;;;;12.32;11.05;;;;;;;;;;5072333;28;20236;-55
2023/12/07 01:33:35;;;;;;;10.80;9.20;;;;;;;;;;5074889;28;20185;-54
2023/12/07 01:36:02;;;;;;;12.45;10.85;;;;;;;;;;5075915;28;20272;-57
2023/12/07 01:38:30;;;;;;;11.98;10.10;;;;;;;;;;5075887;28;20197;-58
2023/12/07 01:40:57;;;;;;;12.30;10.07;;;;;;;;;;5075713;28;20300;-57
2023/12/07 01:43:24;;;;;;;12.43;10.35;;;;;;;;;;5075940;28;20196;-56
2023/12/07 01:45:53;;;;;;;12.18;10.80;;;;;;;;;;5075538;28;20224;-56
2023/12/07 01:48:20;;;;;;;12.63;10.30;;;;;;;;;;5075425;28;20195;-57
2023/12/07 01:50:48;;;;;;;12.20;10.23;;;;;;;;;;5075521;28;20193;-56
2023/12/07 01:53:15;;;;;;;12.98;10.68;;;;;;;;;;5075550;28;20275;-56
2023/12/07 01:55:44;;;;;;;12.07;10.27;;;;;;;;;;5075250;28;20682;-55
2023/12/07 01:58:11;;;;;;;11.98;10.77;;;;;;;;;;5075418;28;20196;-55
2023/12/07 02:00:38;;;;;;;10.05;9.05;;;;;;;;;;5075432;28;20671;-56
2023/12/07 02:03:06;;;;;;;12.90;11.27;;;;;;;;;;5075179;28;20243;-55
2023/12/07 02:05:33;;;;;;;13.43;11.45;;;;;;;;;;5075290;28;20220;-55
2023/12/07 02:08:00;;;;;;;15.43;11.50;;;;;;;;;;5075290;28;20619;-55
2023/12/07 02:10:27;;;;;;;14.85;11.00;;;;;;;;;;5075225;28;20716;-56
2023/12/07 02:12:56;;;;;;;14.13;11.05;;;;;;;;;;5075007;28;20641;-56
2023/12/07 02:15:22;;;;;;;13.88;11.20;;;;;;;;;;5075212;28;20741;-56
2023/12/07 02:17:54;;;;;;;15.43;11.38;;;;;;;;;;5074934;28;20199;-55
2023/12/07 02:20:22;;;;;;;13.00;11.63;;;;;;;;;;5075077;28;20195;-55
2023/12/07 02:22:51;;;;;;;12.60;10.90;;;;;;;;;;5074968;28;20196;-54
2023/12/07 02:25:20;;;;;;;13.93;11.45;;;;;;;;;;5074893;28;20254;-57
2023/12/07 02:27:48;;;;;;;13.90;11.38;;;;;;;;;;5074847;28;20801;-55
2023/12/07 02:30:15;;;;;;;13.73;10.85;;;;;;;;;;5074684;28;20272;-52
2023/12/07 02:32:43;;;;;;;13.18;11.73;;;;;;;;;;5074876;28;20221;-54
2023/12/07 02:35:11;;;;;;;13.20;11.23;;;;;;;;;;5074780;28;20283;-51
2023/12/07 02:37:42;;;;;;;12.02;10.40;;;;;;;;;;5074707;28;20193;-55
2023/12/07 02:40:10;;;;;;;13.82;12.00;;;;;;;;;;5074635;28;20280;-54
2023/12/07 02:42:37;;;;;;;14.00;11.37;;;;;;;;;;5074194;28;20193;-55
2023/12/07 02:45:06;;;;;;;14.27;11.97;;;;;;;;;;5074113;28;21081;-55
2023/12/07 02:47:33;;;;;;;14.80;11.90;;;;;;;;;;5074511;28;20444;-51
2023/12/07 02:50:00;;;;;;;12.88;10.55;;;;;;;;;;5074413;28;20196;-56
2023/12/07 02:52:28;;;;;;;14.88;11.80;;;;;;;;;;5074354;28;20276;-56
2023/12/07 02:54:55;;;;;;;13.85;11.23;;;;;;;;;;5074015;28;20225;-56
2023/12/07 02:57:22;;;;;;;13.82;11.40;;;;;;;;;;5074503;28;20594;-56
2023/12/07 02:59:49;;;;;;;12.85;11.35;;;;;;;;;;5074331;28;20189;-56
2023/12/07 03:02:17;;;;;;;15.02;11.90;;;;;;;;;;5074143;28;20203;-56
2023/12/07 03:04:44;;;;;;;14.55;11.52;;;;;;;;;;5073967;28;20300;-56
2023/12/07 03:07:12;;;;;;;13.38;11.20;;;;;;;;;;5074020;28;20192;-56
2023/12/07 03:09:39;;;;;;;13.18;11.27;;;;;;;;;;5073848;28;20195;-56
2023/12/07 03:12:06;;;;;;;14.10;11.60;;;;;;;;;;5074056;28;20235;-56
2023/12/07 03:14:33;;;;;;;12.48;11.13;;;;;;;;;;5074053;28;20489;-56
2023/12/07 03:17:00;;;;;;;12.93;11.40;;;;;;;;;;5073888;28;20370;-55
2023/12/07 03:19:28;;;;;;;13.50;12.10;;;;;;;;;;5073804;28;20276;-55
2023/12/07 03:21:55;;;;;;;13.70;11.67;;;;;;;;;;5073664;28;20279;-55
2023/12/07 03:24:22;;;;;;;14.55;11.82;;;;;;;;;;5073557;28;20534;-54
2023/12/07 03:26:49;;;;;;;14.60;10.73;;;;;;;;;;5073528;28;20220;-55
2023/12/07 03:29:16;;;;;;;14.45;12.55;;;;;;;;;;5073928;28;20443;-56
2023/12/07 03:31:43;;;;;;;17.15;12.65;;;;;;;;;;5073608;28;20277;-55
2023/12/07 03:34:10;;;;;;;15.13;12.10;;;;;;;;;;5073519;28;20196;-56
2023/12/07 03:36:39;;;;;;;14.43;12.60;;;;;;;;;;5073429;28;20451;-55
2023/12/07 03:39:06;;;;;;;15.27;12.90;;;;;;;;;;5073618;28;20197;-55
2023/12/07 03:41:32;;;;;;;14.90;11.52;;;;;;;;;;5073582;28;20451;-55
2023/12/07 03:43:59;;;;;;;14.90;12.05;;;;;;;;;;5073500;28;20215;-55
2023/12/07 03:46:26;;;;;;;14.95;11.75;;;;;;;;;;5073263;28;20221;-55
2023/12/07 03:48:53;;;;;;;13.90;12.30;;;;;;;;;;5073327;28;20747;-55
2023/12/07 03:51:20;;;;;;;14.70;11.85;;;;;;;;;;5073164;28;20236;-56
2023/12/07 03:53:49;;;;;;;15.77;12.65;;;;;;;;;;5073297;28;20191;-55
2023/12/07 03:56:23;;;;;;;14.35;11.77;;;;;;;;;;5072530;28;20584;-55
2023/12/07 03:58:50;;;;;;;15.25;12.38;;;;;;;;;;5073243;28;20193;-55
2023/12/07 04:01:17;;;;;;;14.45;11.90;;;;;;;;;;5073343;28;20186;-55
2023/12/07 04:03:46;;;;;;;19.25;13.00;;;;;;;;;;5073046;28;20195;-56
2023/12/07 04:06:13;;;;;;;15.43;12.15;;;;;;;;;;5073142;28;20213;-54
2023/12/07 04:08:40;;;;;;;13.60;11.93;;;;;;;;;;5073162;28;20288;-52
2023/12/07 04:11:08;;;;;;;13.35;10.85;;;;;;;;;;5073029;28;20189;-53
2023/12/07 04:13:35;;;;;;;12.52;11.20;;;;;;;;;;5072977;28;20654;-56
2023/12/07 04:16:03;;;;;;;16.23;13.07;;;;;;;;;;5072951;28;20708;-55
2023/12/07 04:18:30;;;;;;;16.55;12.20;;;;;;;;;;5072876;28;20189;-55
2023/12/07 04:20:57;;;;;;;15.90;12.27;;;;;;;;;;5073075;28;20272;-54
2023/12/07 04:23:23;;;;;;;12.73;10.20;;;;;;;;;;5072987;28;20289;-55
2023/12/07 04:25:50;;;;;;;13.55;10.32;;;;;;;;;;5072702;28;20223;-55
2023/12/07 04:28:19;;;;;;;15.93;12.73;;;;;;;;;;5072856;28;20193;-57
2023/12/07 04:30:46;;;;;;;17.05;12.02;;;;;;;;;;5072847;28;20189;-57
2023/12/07 04:33:13;;;;;;;13.43;11.32;;;;;;;;;;5073030;28;20281;-55
2023/12/07 04:35:39;;;;;;;14.52;11.48;;;;;;;;;;5072920;28;20195;-55
2023/12/07 04:38:06;;;;;;;14.30;11.48;;;;;;;;;;5072841;28;20609;-55
2023/12/07 04:40:33;;;;;;;13.60;10.80;;;;;;;;;;5072840;28;20540;-55
2023/12/07 04:43:00;;;;;;;15.07;11.55;;;;;;;;;;5072788;28;20722;-55
2023/12/07 04:45:29;;;;;;;12.50;11.03;;;;;;;;;;5072771;28;20220;-56
2023/12/07 04:47:57;;;;;;;13.38;10.93;;;;;;;;;;5072747;28;20538;-55
2023/12/07 04:50:24;;;;;;;13.60;11.67;;;;;;;;;;5072806;28;20566;-54
2023/12/07 04:52:50;;;;;;;13.00;10.40;;;;;;;;;;5072447;28;21036;-56
2023/12/07 04:55:17;;;;;;;15.57;12.43;;;;;;;;;;5072503;28;20228;-54
2023/12/07 04:57:44;;;;;;;11.40;9.93;;;;;;;;;;5072514;28;20189;-55
2023/12/07 05:00:13;;;;;;;15.80;11.55;;;;;;;;;;5072420;28;20189;-55
2023/12/07 05:02:41;;;;;;;16.08;12.45;;;;;;;;;;5072625;28;20280;-52
2023/12/07 05:05:09;;;;;;;13.70;12.00;;;;;;;;;;5072475;28;20193;-55
2023/12/07 05:07:37;;;;;;;16.60;13.27;;;;;;;;;;5075355;28;20996;-56
2023/12/07 05:10:04;;;;;;;17.63;13.45;;;;;;;;;;5076444;28;20288;-56
2023/12/07 05:12:31;;;;;;;17.35;12.88;;;;;;;;;;5076152;28;20704;-55
2023/12/07 05:14:58;;;;;;;21.48;14.55;;;;;;;;;;5076066;28;20664;-55
2023/12/07 05:17:25;;;;;;;19.38;13.55;;;;;;;;;;5076233;28;20288;-54
2023/12/07 05:19:53;;;;;;;19.88;13.65;;;;;;;;;;5076087;28;20216;-54
2023/12/07 05:22:21;;;;;;;14.00;10.90;;;;;;;;;;5075991;28;20303;-51
2023/12/07 05:24:48;;;;;;;13.43;11.45;;;;;;;;;;5075791;28;20190;-55
2023/12/07 05:27:15;;;;;;;13.48;11.35;;;;;;;;;;5075591;28;20295;-55
2023/12/07 05:29:42;;;;;;;16.55;12.30;;;;;;;;;;5075959;28;20200;-55
2023/12/07 05:32:09;;;;;;;17.87;13.37;;;;;;;;;;5075823;28;20194;-56
2023/12/07 05:34:36;;;;;;;16.80;11.80;;;;;;;;;;5075732;28;20443;-55
2023/12/07 05:37:05;;;;;;;17.38;13.30;;;;;;;;;;5075726;28;20196;-51
2023/12/07 05:39:31;;;;;;;16.40;13.32;;;;;;;;;;5075521;28;20193;-52
2023/12/07 05:41:58;;;;;;;16.00;12.43;;;;;;;;;;5075827;28;20280;-55
2023/12/07 05:44:25;;;;;;;18.10;14.32;;;;;;;;;;5075713;28;20195;-55
2023/12/07 05:46:52;;;;;;;15.35;13.27;;;;;;;;;;5075550;28;20300;-55
2023/12/07 05:49:22;;;;;;;14.27;11.85;;;;;;;;;;5075583;28;20220;-55
2023/12/07 05:51:49;;;;;;;17.15;13.48;;;;;;;;;;5075604;28;20285;-52
2023/12/07 05:54:18;;;;;;;17.42;12.35;;;;;;;;;;5075111;28;20189;-55
2023/12/07 05:56:46;;;;;;;18.07;12.80;;;;;;;;;;5075440;28;20706;-55
2023/12/07 05:59:13;;;;;;;16.75;12.25;;;;;;;;;;5075382;28;20535;-55
2023/12/07 06:01:40;;;;;;;14.87;11.57;;;;;;;;;;5075181;28;20620;-56
2023/12/07 06:04:07;;;;;;;14.43;11.63;;;;;;;;;;5075267;28;20842;-56
2023/12/07 06:06:34;;;;;;;16.15;12.95;;;;;;;;;;5075048;28;20300;-56
2023/12/07 06:09:01;;;;;;;13.60;11.43;;;;;;;;;;5075035;28;20544;-54
2023/12/07 06:11:29;;;;;;;15.50;11.75;;;;;;;;;;5075156;28;20189;-55
2023/12/07 06:13:58;;;;;;;13.97;10.97;;;;;;;;;;5074992;28;20211;-56
2023/12/07 06:16:26;;;;;;;15.63;11.95;;;;;;;;;;5074841;28;20443;-54
2023/12/07 06:18:53;;;;;;;17.35;12.40;;;;;;;;;;5074256;28;20663;-56
2023/12/07 06:21:20;;;;;;;17.30;13.00;;;;;;;;;;5074552;28;20275;-56
2023/12/07 06:23:47;;;;;;;14.38;12.23;;;;;;;;;;5074673;28;20190;-55
2023/12/07 06:26:14;;;;;;;14.80;12.52;;;;;;;;;;5074849;28;20215;-56
2023/12/07 06:28:42;;;;;;;16.65;12.10;;;;;;;;;;5074761;28;20192;-56
2023/12/07 06:31:10;;;;;;;16.52;12.73;;;;;;;;;;5074584;28;20185;-55
2023/12/07 06:33:36;;;;;;;14.27;11.32;;;;;;;;;;5074489;28;20192;-55
2023/12/07 06:36:04;;;;;;;17.52;13.02;;;;;;;;;;5074449;28;20205;-55
2023/12/07 06:38:31;;;;;;;16.55;12.88;;;;;;;;;;5074682;28;20529;-56
2023/12/07 06:40:58;;;;;;;14.90;12.90;;;;;;;;;;5074546;28;20189;-55
2023/12/07 06:43:25;;;;;;;19.88;13.60;;;;;;;;;;5074504;28;20266;-56
2023/12/07 06:45:53;;;;;;;18.73;14.50;;;;;;;;;;5074223;28;20276;-55
2023/12/07 06:48:20;;;;;;;19.00;14.93;;;;;;;;;;5074155;28;20193;-55
2023/12/07 06:50:47;;;;;;;16.90;12.37;;;;;;;;;;5074258;28;20191;-55
2023/12/07 06:53:18;;;;;;;17.75;13.57;;;;;;;;;;5074356;28;20582;-51
2023/12/07 06:55:45;;;;;;;18.48;13.15;;;;;;;;;;5074035;28;20242;-52
2023/12/07 06:58:11;;;;;;;18.77;14.15;;;;;;;;;;5073989;28;20193;-51
2023/12/07 07:00:38;;;;;;;16.48;12.68;;;;;;;;;;5073937;28;20230;-55
2023/12/07 07:03:07;;;;;;;15.88;12.07;;;;;;;;;;5073722;28;20276;-56
2023/12/07 07:05:34;;;;;;;16.92;13.13;;;;;;;;;;5073907;28;20243;-56
2023/12/07 07:08:01;;;;;;;17.53;13.00;;;;;;;;;;5073880;28;20217;-56
2023/12/07 07:10:28;;;;;;;18.23;13.30;;;;;;;;;;5073948;28;20483;-56
2023/12/07 07:12:55;;;;;;;18.63;13.70;;;;;;;;;;5073618;28;20196;-56
2023/12/07 07:15:23;;;;;;;20.70;16.97;;;;;;;;;;5072894;28;20562;-53
2023/12/07 07:17:50;;;;;;;17.20;14.10;;;;;;;;;;5073909;28;20447;-54
2023/12/07 07:20:18;;;;;;;20.27;14.73;;;;;;;;;;5073816;28;20663;-54
2023/12/07 07:22:45;;;;;;;18.05;13.65;;;;;;;;;;5073801;28;20448;-56
2023/12/07 07:25:14;;;;;;;18.00;13.15;;;;;;;;;;5073329;28;20193;-55
2023/12/07 07:27:41;;;;;;;18.67;13.52;;;;;;;;;;5073299;28;20213;-53
2023/12/07 07:30:08;;;;;;;18.97;14.17;;;;;;;;;;5073365;28;20639;-56
2023/12/07 07:32:36;;;;;;;19.23;15.07;;;;;;;;;;5073654;28;21063;-55
2023/12/07 07:35:03;;;;;;;18.30;14.10;;;;;;;;;;5073527;28;20190;-57
2023/12/07 07:37:31;;;;;;;20.10;14.73;;;;;;;;;;5073211;28;20278;-56
2023/12/07 07:39:59;;;;;;;23.05;14.35;;;;;;;;;;5073299;28;20193;-54
2023/12/07 07:42:26;;;;;;;22.17;15.90;;;;;;;;;;5073128;28;20200;-55
2023/12/07 07:44:53;;;;;;;17.92;15.00;;;;;;;;;;5073246;28;20832;-55
2023/12/07 07:47:20;;;;;;;20.40;15.73;;;;;;;;;;5073233;28;20312;-55
2023/12/07 07:49:47;;;;;;;21.95;15.25;;;;;;;;;;5073289;28;20232;-55
2023/12/07 07:52:14;;;;;;;20.27;14.53;;;;;;;;;;5073151;28;20280;-56
2023/12/07 07:54:42;;;;;;;20.65;15.48;;;;;;;;;;5072852;28;20874;-53
2023/12/07 07:57:09;;;;;;;21.63;15.30;;;;;;;;;;5073038;28;20275;-55
2023/12/07 07:59:37;;;;;;;19.08;15.10;;;;;;;;;;5072984;28;20193;-52
2023/12/07 08:02:04;;;;;;;22.42;16.90;;;;;;;;;;5072894;28;20727;-56
2023/12/07 08:04:32;;;;;;;18.88;14.35;;;;;;;;;;5073035;28;20189;-56
2023/12/07 08:06:59;;;;;;;20.83;15.80;;;;;;;;;;5073076;28;20300;-56
2023/12/07 08:09:26;;;;;;;21.52;15.95;;;;;;;;;;5073181;28;20196;-56
2023/12/07 08:11:54;;;;;;;22.95;16.65;;;;;;;;;;5072688;28;20220;-56
2023/12/07 08:14:21;;;;;;;22.10;16.90;;;;;;;;;;5073003;28;20547;-56
2023/12/07 08:16:48;;;;;;;21.80;15.25;;;;;;;;;;5072793;28;20211;-57
2023/12/07 08:19:15;;;;;;;21.93;17.53;;;;;;;;;;5072879;28;20192;-55
2023/12/07 08:21:42;;;;;;;23.25;16.95;;;;;;;;;;5072956;28;20538;-55
2023/12/07 08:24:09;;;;;;;24.10;16.75;;;;;;;;;;5072667;28;20189;-56
2023/12/07 08:26:36;;;;;;;22.67;16.95;;;;;;;;;;5072810;28;20280;-55
2023/12/07 08:29:04;;;;;;;26.20;19.00;;;;;;;;;;5073095;28;20191;-56
2023/12/07 08:31:31;;;;;;;24.35;16.73;;;;;;;;;;5072610;28;20446;-56
2023/12/07 08:33:58;;;;;;;21.13;17.40;;;;;;;;;;5072663;28;20189;-57
2023/12/07 08:36:25;;;;;;;24.25;17.77;;;;;;;;;;5072498;28;20449;-56
2023/12/07 08:38:52;;;;;;;22.00;16.50;;;;;;;;;;5072543;28;20196;-56
2023/12/07 08:41:19;;;;;;;22.90;15.95;;;;;;;;;;5073734;28;20193;-56
2023/12/07 08:43:46;;;;;;;21.73;16.57;;;;;;;;;;5076752;28;20189;-56
2023/12/07 08:46:15;;;;;;;21.53;17.13;;;;;;;;;;5076599;28;20947;-56
2023/12/07 08:48:42;;;;;;;20.17;15.87;;;;;;;;;;5076743;28;21064;-56
2023/12/07 08:51:09;;;;;;;28.10;17.97;;;;;;;;;;5076567;28;20447;-58
2023/12/07 08:53:36;;;;;;;21.92;16.65;;;;;;;;;;5076437;28;20474;-56
2023/12/07 08:56:03;;;;;;;26.05;18.20;;;;;;;;;;5076225;28;20232;-56
2023/12/07 08:58:30;;;;;;;22.07;17.40;;;;;;;;;;5076415;28;20315;-57
2023/12/07 09:00:57;;;;;;;27.07;17.90;;;;;;;;;;5076358;28;20783;-56
2023/12/07 09:03:31;;;;;;;25.67;17.80;;;;;;;;;;5076374;28;20457;-56
2023/12/07 09:05:58;;;;;;;24.20;17.73;;;;;;;;;;5076261;28;20443;-57
2023/12/07 09:08:25;;;;;;;22.37;17.10;;;;;;;;;;5076324;28;20482;-56
2023/12/07 09:10:52;;;;;;;28.70;18.90;;;;;;;;;;5076267;28;20443;-55
2023/12/07 09:13:19;;;;;;;21.63;16.77;;;;;;;;;;5076054;28;20534;-56
2023/12/07 09:15:46;;;;;;;25.90;18.70;;;;;;;;;;5075983;28;20443;-52
2023/12/07 09:18:13;;;;;;;24.85;18.70;;;;;;;;;;5075947;28;20533;-55
2023/12/07 09:20:45;;;;;;;24.65;17.50;;;;;;;;;;5075810;28;20303;-55
2023/12/07 09:23:12;;;;;;;22.87;16.83;;;;;;;;;;5076007;28;20617;-54
2023/12/07 09:25:40;;;;;;;26.35;19.27;;;;;;;;;;5075760;28;20538;-54
2023/12/07 09:28:08;;;;;;;26.20;16.90;;;;;;;;;;5075836;28;20213;-56
2023/12/07 09:30:35;;;;;;;27.60;18.60;;;;;;;;;;5075666;28;20936;-55
2023/12/07 09:33:03;;;;;;;26.70;17.60;;;;;;;;;;5075490;28;20506;-56
2023/12/07 09:35:30;;;;;;;22.17;16.52;;;;;;;;;;5075785;28;20189;-56
2023/12/07 09:37:58;;;;;;;24.17;17.37;;;;;;;;;;5075649;28;20189;-56
2023/12/07 09:40:27;;;;;;;24.17;16.00;;;;;;;;;;5075478;28;20954;-56
2023/12/07 09:42:54;;;;;;;25.60;17.20;;;;;;;;;;5075570;28;20478;-56
2023/12/07 09:45:22;;;;;;;29.33;17.42;;;;;;;;;;5075418;28;20641;-56
2023/12/07 09:47:49;;;;;;;28.00;18.30;;;;;;;;;;5075581;28;20228;-56
2023/12/07 09:50:17;;;;;;;31.10;17.90;;;;;;;;;;5075593;28;20447;-59
2023/12/07 09:52:44;;;;;;;26.52;18.05;;;;;;;;;;5074288;28;20806;-61
2023/12/07 09:55:12;;;;;;;26.33;17.40;;;;;;;;;;5075419;28;20307;-61
2023/12/07 09:57:39;;;;;;;27.67;18.60;;;;;;;;;;5075336;28;20478;-60
2023/12/07 10:00:09;;;;;;;27.75;19.55;;;;;;;;;;5075201;28;20790;-59
2023/12/07 10:02:39;;;;;;;28.70;18.95;;;;;;;;;;5075141;28;20196;-60
2023/12/07 10:05:06;;;;;;;22.90;17.10;;;;;;;;;;5075357;28;20193;-61
2023/12/07 10:07:36;;;;;;;31.05;21.33;;;;;;;;;;5075102;28;20475;-60
2023/12/07 10:10:03;;;;;;;25.30;18.50;;;;;;;;;;5075382;28;20191;-57
2023/12/07 10:12:33;;;;;;;26.70;18.90;;;;;;;;;;5074797;28;20452;-57
2023/12/07 10:15:00;;;;;;;30.40;19.60;;;;;;;;;;5075145;28;20497;-57
2023/12/07 10:17:44;;;;;;;25.63;17.57;;;;;;;;;;5075052;28;20451;-57
2023/12/07 10:20:12;;;;;;;28.03;17.50;;;;;;;;;;5074813;28;21041;-58
2023/12/07 10:22:39;;;;;;;26.57;18.33;;;;;;;;;;5074814;28;20803;-58
2023/12/07 10:25:07;;;;;;;27.70;18.17;;;;;;;;;;5074708;28;20538;-58
2023/12/07 10:27:35;;;;;;;27.60;16.93;;;;;;;;;;5074789;28;20481;-58
2023/12/07 10:30:02;;;;;;;29.63;18.25;;;;;;;;;;5075013;28;20447;-58
2023/12/07 10:32:29;;;;;;;25.33;18.23;;;;;;;;;;5074618;28;20748;-61
2023/12/07 10:34:58;;;;;;;24.27;17.77;;;;;;;;;;5074653;28;20524;-58
2023/12/07 10:37:25;;;;;;;27.90;19.05;;;;;;;;;;5074584;28;20451;-60
2023/12/07 10:39:52;;;;;;;26.07;17.97;;;;;;;;;;5074400;28;20194;-61
2023/12/07 10:42:20;;;;;;;24.20;16.90;;;;;;;;;;5074448;28;20802;-59
2023/12/07 10:44:51;;;;;;;25.70;16.53;;;;;;;;;;5074454;28;20538;-60
2023/12/07 10:47:19;;;;;;;24.20;16.30;;;;;;;;;;5073928;28;20505;-60
2023/12/07 10:49:48;;;;;;;24.77;17.10;;;;;;;;;;5073748;28;20994;-60
2023/12/07 10:52:15;;;;;;;24.03;17.03;;;;;;;;;;5073805;28;20460;-61
2023/12/07 10:54:45;;;;;;;25.53;17.10;;;;;;;;;;5074197;28;20475;-60
2023/12/07 10:57:13;;;;;;;25.40;17.13;;;;;;;;;;5074301;28;20488;-60
2023/12/07 10:59:41;;;;;;;26.47;16.87;;;;;;;;;;5074079;28;20501;-57
2023/12/07 11:02:11;;;;;;;21.43;14.83;;;;;;;;;;5074029;28;20538;-61
2023/12/07 11:04:38;;;;;;;26.80;17.63;;;;;;;;;;5073533;28;20447;-62
2023/12/07 11:07:08;;;;;;;26.10;17.73;;;;;;;;;;5074088;28;20444;-61
2023/12/07 11:09:37;;;;;;;25.37;16.40;;;;;;;;;;5073981;28;20200;-61
2023/12/07 11:12:07;;;;;;;26.03;16.20;;;;;;;;;;5073907;28;20532;-61
2023/12/07 11:14:34;;;;;;;25.53;17.03;;;;;;;;;;5073765;28;20526;-61
2023/12/07 11:17:01;;;;;;;24.27;15.73;;;;;;;;;;5073773;28;20447;-61
2023/12/07 11:19:47;;;;;;;24.30;16.27;;;;;;;;;;5073870;28;20458;-61
2023/12/07 11:22:15;;;;;;;23.87;16.73;;;;;;;;;;5073820;28;20530;-61
2023/12/07 11:25:00;;;;;;;24.30;16.43;;;;;;;;;;5073464;28;20994;-61
2023/12/07 11:27:30;;;;;;;26.90;16.83;;;;;;;;;;5073472;28;20858;-61
2023/12/07 11:30:00;;;;;;;28.37;17.43;;;;;;;;;;5073529;28;20777;-61
2023/12/07 11:32:27;;;;;;;28.13;18.70;;;;;;;;;;5073939;28;20450;-61
2023/12/07 11:34:54;;;;;;;26.03;17.17;;;;;;;;;;5073439;28;20455;-62
2023/12/07 11:37:23;;;;;;;29.77;18.33;;;;;;;;;;5073349;28;20876;-61
2023/12/07 11:39:50;;;;;;;26.77;16.90;;;;;;;;;;5073247;28;20888;-60
2023/12/07 11:42:17;;;;;;;25.70;17.50;;;;;;;;;;5073100;28;20813;-60
2023/12/07 11:44:46;;;;;;;31.60;18.90;;;;;;;;;;5073391;28;20443;-61
2023/12/07 11:47:16;;;;;;;25.80;16.07;;;;;;;;;;5073343;28;20481;-60
2023/12/07 11:49:43;;;;;;;30.50;18.40;;;;;;;;;;5073132;28;20490;-61
2023/12/07 11:52:14;;;;;;;29.67;18.43;;;;;;;;;;5073011;28;20479;-60
2023/12/07 11:54:43;;;;;;;30.53;19.17;;;;;;;;;;5072910;28;20843;-61
2023/12/07 11:57:10;;;;;;;26.30;16.63;;;;;;;;;;5073201;28;20989;-60
2023/12/07 11:59:37;;;;;;;26.07;16.57;;;;;;;;;;5073026;28;20539;-60
2023/12/07 12:02:04;;;;;;;25.07;17.20;;;;;;;;;;5072999;28;20546;-60
2023/12/07 12:04:32;;;;;;;28.45;17.40;;;;;;;;;;5072915;28;20447;-61
2023/12/07 12:06:59;;;;;;;32.37;18.80;;;;;;;;;;5072890;28;20199;-60
2023/12/07 12:09:26;;;;;;;27.37;18.27;;;;;;;;;;5072763;28;20519;-60
2023/12/07 12:11:54;;;;;;;27.57;18.63;;;;;;;;;;5073135;28;20444;-60
2023/12/07 12:14:21;;;;;;;31.03;18.60;;;;;;;;;;5072980;28;20473;-62
2023/12/07 12:16:48;;;;;;;41.23;23.83;;;;;;;;;;5072217;28;20443;-61
2023/12/07 12:19:15;;;;;;;31.40;19.00;;;;;;;;;;5073515;28;20538;-60
2023/12/07 12:21:43;;;;;;;33.37;19.00;;;;;;;;;;5072591;28;20443;-60
2023/12/07 12:24:10;;;;;;;30.02;19.45;;;;;;;;;;5072934;28;20451;-59
2023/12/07 12:26:38;;;;;;;26.87;17.33;;;;;;;;;;5073106;28;20189;-59
2023/12/07 12:29:07;;;;;;;27.67;17.40;;;;;;;;;;5073105;28;20490;-60
2023/12/07 12:31:34;;;;;;;22.63;15.40;;;;;;;;;;5072756;28;20447;-59
2023/12/07 12:34:02;;;;;;;23.70;16.93;;;;;;;;;;5072610;28;20443;-59
2023/12/07 12:36:29;;;;;;;27.07;18.67;;;;;;;;;;5072499;28;20832;-59
2023/12/07 12:38:56;;;;;;;25.23;17.40;;;;;;;;;;5072709;28;20502;-61
2023/12/07 12:41:24;;;;;;;25.47;16.80;;;;;;;;;;5072853;28;20444;-60
2023/12/07 12:43:51;;;;;;;24.00;17.20;;;;;;;;;;5072653;28;20535;-60
2023/12/07 12:46:19;;;;;;;25.93;17.47;;;;;;;;;;5072887;28;20536;-60
2023/12/07 12:48:56;;;;;;;25.13;18.17;;;;;;;;;;5072224;28;20475;-61
2023/12/07 12:51:25;;;;;;;22.60;16.30;;;;;;;;;;5072596;28;20489;-59
2023/12/07 12:53:51;;;;;;;26.43;17.20;;;;;;;;;;5072423;28;20443;-60
2023/12/07 12:56:19;;;;;;;24.00;17.30;;;;;;;;;;5072378;28;20475;-61
2023/12/07 12:58:47;;;;;;;23.80;15.37;;;;;;;;;;5072507;28;20497;-60
2023/12/07 13:01:15;;;;;;;25.60;16.33;;;;;;;;;;5072280;28;20891;-59
2023/12/07 13:03:45;;;;;;;22.43;16.53;;;;;;;;;;5072613;28;20443;-61
2023/12/07 13:06:12;;;;;;;24.40;16.13;;;;;;;;;;5072408;28;20479;-58
2023/12/07 13:08:39;;;;;;;21.90;15.63;;;;;;;;;;5072230;28;20650;-61
2023/12/07 13:11:07;;;;;;;24.83;16.83;;;;;;;;;;5072437;28;20451;-61
2023/12/07 13:13:34;;;;;;;23.20;17.60;;;;;;;;;;5072302;28;20864;-68
2023/12/07 13:16:01;;;;;;;25.10;16.63;;;;;;;;;;5072296;28;20539;-67
2023/12/07 13:18:28;;;;;;;26.87;16.87;;;;;;;;;;5072202;28;20520;-75
2023/12/07 13:20:56;;;;;;;24.10;16.60;;;;;;;;;;5072343;28;20510;-68
2023/12/07 13:23:23;;;;;;;26.13;16.33;;;;;;;;;;5072266;28;20863;-68
2023/12/07 13:25:50;;;;;;;23.30;16.07;;;;;;;;;;5072177;28;20530;-64
2023/12/07 13:28:17;;;;;;;25.60;16.97;;;;;;;;;;5074433;28;21022;-60
2023/12/07 13:30:44;;;;;;;22.70;16.17;;;;;;;;;;5075895;28;20447;-65
2023/12/07 13:33:11;;;;;;;22.67;15.27;;;;;;;;;;5075894;28;20558;-67
2023/12/07 13:35:38;;;;;;;23.60;16.13;;;;;;;;;;5075768;28;20454;-65
2023/12/07 13:38:06;;;;;;;23.47;16.10;;;;;;;;;;5075700;28;20443;-68
2023/12/07 13:40:35;;;;;;;21.63;17.10;;;;;;;;;;5075576;28;20538;-65
2023/12/07 13:43:03;;;;;;;24.00;16.60;;;;;;;;;;5075908;28;20446;-62
2023/12/07 13:45:30;;;;;;;27.05;17.60;;;;;;;;;;5075790;28;20450;-60
2023/12/07 13:47:58;;;;;;;22.73;15.97;;;;;;;;;;5075270;28;20211;-60
2023/12/07 13:50:25;;;;;;;25.63;17.87;;;;;;;;;;5075498;28;20454;-61
2023/12/07 13:52:52;;;;;;;22.58;14.82;;;;;;;;;;5075403;28;20530;-60
2023/12/07 13:55:20;;;;;;;22.07;15.87;;;;;;;;;;5075219;28;20780;-60
2023/12/07 13:57:47;;;;;;;26.13;16.43;;;;;;;;;;5075236;28;20535;-61
2023/12/07 14:00:15;;;;;;;23.67;16.00;;;;;;;;;;5075413;28;20535;-60
2023/12/07 14:02:43;;;;;;;27.20;17.05;;;;;;;;;;5075120;28;20535;-60
2023/12/07 14:05:10;;;;;;;24.60;15.97;;;;;;;;;;5075237;28;20197;-60
2023/12/07 14:07:37;;;;;;;26.07;17.17;;;;;;;;;;5075058;28;20465;-61
2023/12/07 14:10:04;;;;;;;29.50;18.17;;;;;;;;;;5075094;28;20483;-61
2023/12/07 14:12:33;;;;;;;31.03;19.40;;;;;;;;;;5075132;28;20526;-60
2023/12/07 14:15:00;;;;;;;27.00;17.87;;;;;;;;;;5075032;28;20451;-61
2023/12/07 14:17:27;;;;;;;27.10;18.37;;;;;;;;;;5075045;28;20883;-60